OAL463 LGAV-EGLL

Flight info

Callsign OAL463
Flight time N/A
Altitude 32000
Route KOR UL53 IPTES DCT DIMIS DCT VAKSU DCT ROTAR DCT BORMI DCT RESIA DCT ELMUR L613 HOC DCT LUL DCT RLP DCT ROTSI DCT KOTUN DCT NINAL DCT ABNUR DCT DIMAL DCT ALESO
Aircraft B77L/H-SDE1E2E3FGHIJ2J3J4J5M1RWXY/LB1D1

Departure

Time 2026-05-05 07:25
Airport Athens Eleftherios Venizelos International Airport (LGAV)

Arrival

Time N/A
Airport London Heathrow Airport (EGLL)
Time Latitude Longitude Altitude Speed Heading
2026-05-05 07:12 37.93454 23.94714 305 ft 0 kts 306°
2026-05-05 07:19 37.93447 23.94725 305 ft 3 kts 306°
2026-05-05 07:20 37.93431 23.94753 305 ft 3 kts 306°
2026-05-05 07:20 37.93418 23.94773 306 ft 2 kts 273°
2026-05-05 07:20 37.93425 23.94793 308 ft 3 kts 215°
2026-05-05 07:20 37.93426 23.94793 305 ft 0 kts 215°
2026-05-05 07:21 37.93423 23.94791 307 ft 2 kts 215°
2026-05-05 07:21 37.93342 23.94715 305 ft 16 kts 217°
2026-05-05 07:21 37.93276 23.94650 305 ft 18 kts 218°
2026-05-05 07:22 37.92921 23.94580 309 ft 18 kts 213°
2026-05-05 07:22 37.92814 23.94489 306 ft 18 kts 215°
2026-05-05 07:23 37.92711 23.94391 309 ft 18 kts 217°
2026-05-05 07:23 37.92609 23.94293 310 ft 18 kts 217°
2026-05-05 07:23 37.92508 23.94197 309 ft 15 kts 217°
2026-05-05 07:23 37.92448 23.94168 310 ft 12 kts 170°
2026-05-05 07:24 37.92413 23.94296 312 ft 12 kts 92°
2026-05-05 07:24 37.92436 23.94398 314 ft 14 kts 49°
2026-05-05 07:24 37.92604 23.94568 310 ft 58 kts 37°
2026-05-05 07:24 37.93109 23.95047 301 ft 121 kts 36°
2026-05-05 07:25 37.93923 23.95823 286 ft 170 kts 37°
2026-05-05 07:25 37.94940 23.96792 481 ft 187 kts 37°
2026-05-05 07:25 37.95972 23.97775 1017 ft 186 kts 36°